Terminal Aerodrome Forecast
Issued by NWS

Home | Current Version | Previous Version | Text Only | Print | Product List | Glossary On
Versions: 1 2 3 4 5 6 7 8 9 10 11 12 13 14 15 16 17 18 19 20 21
000
FTUS44 KMAF 150800 AAC
TAFINK
TAF AMD
KINK 150847Z 1509/1606 13009KT P6SM SCT018 OVC050
     FM151000 14005KT 6SM BR OVC006
      TEMPO 1511/1515 3SM BR OVC002
     FM151600 14009KT P6SM OVC020
     FM152000 12008KT P6SM OVC050=

USA.gov is the U.S. government's official web portal to all federal, state and local government web resources and services.